createdAt,value
2024-02-03T00:01:45.139Z,0.30
2024-02-03T00:04:34.507Z,0.20
2024-02-03T00:07:20.491Z,0.20
2024-02-03T00:10:06.888Z,0.47
2024-02-03T00:12:53.071Z,0.35
2024-02-03T00:15:39.018Z,0.45
2024-02-03T00:18:24.600Z,0.20
2024-02-03T00:21:11.777Z,0.22
2024-02-03T00:23:57.300Z,0.30
2024-02-03T00:26:42.782Z,0.30
2024-02-03T00:29:28.226Z,0.40
2024-02-03T00:32:13.770Z,0.60
2024-02-03T00:34:59.280Z,0.30
2024-02-03T00:37:44.754Z,0.30
2024-02-03T00:40:30.495Z,0.30
2024-02-03T00:43:17.512Z,0.30
2024-02-03T00:46:03.037Z,0.30
2024-02-03T00:48:48.766Z,0.30
2024-02-03T00:51:34.452Z,0.20
2024-02-03T00:54:19.884Z,0.20
2024-02-03T00:57:06.053Z,0.20
2024-02-03T00:59:52.060Z,0.20
2024-02-03T01:02:37.464Z,0.30
2024-02-03T01:05:23.071Z,0.30
2024-02-03T01:08:08.471Z,0.20
2024-02-03T01:10:53.881Z,0.20
2024-02-03T01:13:39.642Z,0.30
2024-02-03T01:16:25.388Z,0.13
2024-02-03T01:19:10.905Z,0.20
2024-02-03T01:21:57.150Z,0.15
2024-02-03T01:24:42.665Z,0.20
2024-02-03T01:27:28.506Z,0.20
2024-02-03T01:30:13.859Z,0.20
2024-02-03T01:32:59.346Z,0.10
2024-02-03T01:35:45.404Z,0.20
2024-02-03T01:38:30.765Z,0.20
2024-02-03T01:41:17.039Z,0.10
2024-02-03T01:44:02.745Z,0.20
2024-02-03T01:46:48.689Z,0.10
2024-02-03T01:49:34.890Z,0.20
2024-02-03T01:52:20.367Z,0.20
2024-02-03T01:55:06.319Z,0.20
2024-02-03T01:57:54.670Z,0.15
2024-02-03T02:00:41.055Z,0.10
2024-02-03T02:03:26.953Z,0.20
2024-02-03T02:06:12.877Z,0.20
2024-02-03T02:08:58.253Z,0.10
2024-02-03T02:11:43.791Z,0.10
2024-02-03T02:14:29.386Z,0.17
2024-02-03T02:17:14.900Z,0.10
2024-02-03T02:20:11.452Z,0.13
2024-02-03T02:22:57.334Z,0.20
2024-02-03T02:25:43.178Z,0.17
2024-02-03T02:29:32.743Z,0.10
2024-02-03T02:32:20.378Z,0.10
2024-02-03T02:35:06.155Z,0.20
2024-02-03T02:37:52.677Z,0.10
2024-02-03T02:40:38.131Z,0.20
2024-02-03T02:43:23.721Z,0.20
2024-02-03T02:46:10.314Z,0.10
2024-02-03T02:48:56.163Z,0.20
2024-02-03T02:51:41.685Z,0.20
2024-02-03T02:54:27.537Z,0.10
2024-02-03T02:57:13.209Z,0.10
2024-02-03T02:59:58.887Z,0.20
2024-02-03T03:02:44.340Z,0.20
2024-02-03T03:05:29.976Z,0.20
2024-02-03T03:08:15.436Z,0.10
2024-02-03T03:11:00.806Z,0.20
2024-02-03T03:13:46.263Z,0.10
2024-02-03T03:16:31.785Z,0.20
2024-02-03T03:19:17.763Z,0.20
2024-02-03T03:22:04.230Z,0.10
2024-02-03T03:24:50.014Z,0.20
2024-02-03T03:27:37.771Z,0.10
2024-02-03T03:30:23.174Z,0.10
2024-02-03T03:33:08.884Z,0.20
2024-02-03T03:35:54.724Z,0.20
2024-02-03T03:38:45.774Z,0.20
2024-02-03T03:41:31.313Z,0.20
2024-02-03T03:44:16.744Z,0.10
2024-02-03T03:47:02.224Z,0.10
2024-02-03T03:49:47.550Z,0.15
2024-02-03T03:52:33.207Z,0.20
2024-02-03T03:55:18.628Z,0.28
2024-02-03T03:58:03.933Z,0.10
2024-02-03T04:00:49.724Z,0.10
2024-02-03T04:03:35.473Z,0.20
2024-02-03T04:06:21.410Z,0.20
2024-02-03T04:09:07.652Z,0.20
2024-02-03T04:11:53.122Z,0.15
2024-02-03T04:14:38.612Z,0.30
2024-02-03T04:17:23.957Z,0.20
2024-02-03T04:20:10.420Z,0.20
2024-02-03T04:22:55.997Z,0.20
2024-02-03T04:25:41.638Z,0.40
2024-02-03T04:28:27.025Z,0.20
2024-02-03T04:31:13.401Z,0.15
2024-02-03T04:34:00.863Z,0.30
2024-02-03T04:36:47.633Z,0.20
2024-02-03T04:39:33.136Z,0.30
2024-02-03T04:42:18.795Z,0.20
2024-02-03T04:45:04.519Z,0.30
2024-02-03T04:47:50.061Z,1.65
2024-02-03T04:50:36.229Z,0.40
2024-02-03T04:53:22.373Z,0.40
2024-02-03T04:56:08.454Z,0.30
2024-02-03T04:58:54.191Z,0.30
2024-02-03T05:01:40.077Z,0.40
2024-02-03T05:04:26.045Z,0.25
2024-02-03T05:07:11.944Z,0.20
2024-02-03T05:09:57.337Z,0.20
2024-02-03T05:12:43.064Z,0.95
2024-02-03T05:15:28.532Z,1.30
2024-02-03T05:18:14.010Z,0.80
2024-02-03T05:20:59.781Z,0.30
2024-02-03T05:23:45.079Z,0.20
2024-02-03T05:26:30.858Z,0.40
2024-02-03T05:29:16.192Z,0.40
2024-02-03T05:32:01.653Z,0.28
2024-02-03T05:34:47.730Z,0.30
2024-02-03T05:37:33.111Z,0.30
2024-02-03T05:40:18.842Z,0.30
2024-02-03T05:43:04.992Z,0.20
2024-02-03T05:45:50.816Z,0.25
2024-02-03T05:48:36.714Z,0.30
2024-02-03T05:51:22.812Z,0.25
2024-02-03T05:54:08.631Z,0.50
2024-02-03T05:56:54.534Z,0.50
2024-02-03T05:59:48.641Z,0.20
2024-02-03T06:02:37.062Z,0.40
2024-02-03T06:05:22.545Z,0.30
2024-02-03T06:08:08.579Z,0.50
2024-02-03T06:10:54.285Z,0.68
2024-02-03T06:13:39.763Z,0.47
2024-02-03T06:16:25.256Z,0.70
2024-02-03T06:19:10.942Z,0.65
2024-02-03T06:21:56.893Z,0.80
2024-02-03T06:24:42.244Z,0.93
2024-02-03T06:27:28.386Z,1.00
2024-02-03T06:30:14.221Z,0.85
2024-02-03T06:33:00.760Z,0.88
2024-02-03T06:35:46.571Z,0.52
2024-02-03T06:38:31.848Z,0.70
2024-02-03T06:41:19.284Z,2.97
2024-02-03T06:44:05.212Z,0.90
2024-02-03T06:46:50.893Z,0.90
2024-02-03T06:49:36.251Z,0.77
2024-02-03T06:52:21.773Z,1.00
2024-02-03T06:55:07.892Z,1.20
2024-02-03T06:57:53.604Z,1.83
2024-02-03T07:00:39.665Z,1.70
2024-02-03T07:03:25.549Z,2.40
2024-02-03T07:06:12.456Z,2.47
2024-02-03T07:08:57.898Z,5.47
2024-02-03T07:11:56.173Z,3.60
2024-02-03T07:17:32.450Z,3.88
2024-02-03T07:20:18.343Z,3.67
2024-02-03T07:23:03.770Z,2.67
2024-02-03T07:25:50.042Z,2.97
2024-02-03T07:28:35.772Z,2.60
2024-02-03T07:31:31.173Z,2.58
2024-02-03T07:34:16.745Z,2.83
2024-02-03T07:37:02.647Z,3.15
2024-02-03T07:39:48.575Z,2.85
2024-02-03T07:42:34.518Z,3.33
2024-02-03T07:45:20.993Z,6.32
2024-02-03T07:48:07.220Z,13.48
2024-02-03T07:50:53.061Z,9.85
2024-02-03T07:53:38.536Z,4.20
2024-02-03T07:56:24.131Z,3.28
2024-02-03T07:59:09.539Z,2.55
2024-02-03T08:01:55.117Z,2.13
2024-02-03T08:04:40.679Z,2.95
2024-02-03T08:07:26.146Z,2.00
2024-02-03T08:10:11.907Z,0.90
2024-02-03T08:12:57.735Z,0.50
2024-02-03T08:15:43.151Z,0.50
2024-02-03T08:18:31.498Z,0.40
2024-02-03T08:21:17.026Z,0.50
2024-02-03T08:24:03.323Z,0.57
2024-02-03T08:26:48.638Z,0.40
2024-02-03T08:29:34.271Z,0.93
2024-02-03T08:32:19.686Z,0.30
2024-02-03T08:37:53.916Z,0.40
2024-02-03T08:40:39.279Z,0.50
2024-02-03T08:43:24.946Z,0.30
2024-02-03T08:46:10.486Z,0.40
2024-02-03T08:48:55.951Z,0.30
2024-02-03T08:51:42.534Z,0.20
2024-02-03T08:54:28.228Z,0.40
2024-02-03T08:57:13.629Z,0.50
2024-02-03T08:59:59.172Z,0.40
2024-02-03T09:02:44.725Z,0.30
2024-02-03T09:05:30.832Z,0.40
2024-02-03T09:08:16.628Z,0.40
2024-02-03T09:11:02.273Z,0.30
2024-02-03T09:13:47.717Z,0.30
2024-02-03T09:16:33.820Z,0.25
2024-02-03T09:19:19.724Z,0.30
2024-02-03T09:22:05.433Z,0.30
2024-02-03T09:24:51.310Z,0.30
2024-02-03T09:27:37.346Z,0.28
2024-02-03T09:30:22.775Z,0.30
2024-02-03T09:33:08.527Z,0.35
2024-02-03T09:35:54.576Z,0.20
2024-02-03T09:38:42.358Z,0.40
2024-02-03T09:41:30.095Z,0.20
2024-02-03T09:44:15.849Z,0.20
2024-02-03T09:47:02.679Z,0.30
2024-02-03T09:49:49.395Z,0.30
2024-02-03T09:52:35.883Z,0.55
2024-02-03T09:55:21.849Z,0.30
2024-02-03T09:58:07.684Z,0.20
2024-02-03T10:00:53.984Z,0.25
2024-02-03T10:03:42.995Z,0.30
2024-02-03T10:06:28.660Z,0.20
2024-02-03T10:09:26.484Z,0.20
2024-02-03T10:12:25.589Z,0.22
2024-02-03T10:15:11.549Z,0.20
2024-02-03T10:18:02.194Z,0.20
2024-02-03T10:20:49.651Z,0.17
2024-02-03T10:23:35.222Z,0.20
2024-02-03T10:26:20.733Z,0.20
2024-02-03T10:29:06.341Z,0.10
2024-02-03T10:31:51.742Z,0.20
2024-02-03T10:34:37.850Z,0.10
2024-02-03T10:37:23.360Z,0.20
2024-02-03T10:40:09.530Z,0.10
2024-02-03T10:42:58.764Z,0.20
2024-02-03T10:45:54.134Z,0.20
2024-02-03T10:48:46.166Z,0.20
2024-02-03T10:51:33.044Z,0.20
2024-02-03T10:54:25.043Z,0.30
2024-02-03T10:57:11.868Z,0.47
2024-02-03T11:00:11.810Z,0.10
2024-02-03T11:03:01.569Z,0.20
2024-02-03T11:05:47.298Z,0.10
2024-02-03T11:08:36.764Z,0.10
2024-02-03T11:11:27.534Z,0.13
2024-02-03T11:14:28.188Z,0.10
2024-02-03T11:17:14.661Z,0.10
2024-02-03T11:20:04.719Z,0.10
2024-02-03T11:22:55.392Z,0.10
2024-02-03T11:25:50.658Z,0.10
2024-02-03T11:28:36.424Z,0.20
2024-02-03T11:31:24.281Z,0.20
2024-02-03T11:34:14.460Z,0.15
2024-02-03T11:37:00.986Z,0.10
2024-02-03T11:39:47.720Z,0.10
2024-02-03T11:42:33.848Z,0.20
2024-02-03T11:45:25.091Z,0.20
2024-02-03T11:48:10.652Z,0.20
2024-02-03T11:50:56.390Z,0.13
2024-02-03T11:53:42.980Z,0.10
2024-02-03T11:56:28.396Z,0.20
2024-02-03T11:59:15.755Z,0.10
2024-02-03T12:02:01.312Z,0.10
2024-02-03T12:04:46.957Z,0.10
2024-02-03T12:07:32.899Z,0.30
2024-02-03T12:10:18.633Z,0.20
2024-02-03T12:13:04.319Z,0.20
2024-02-03T12:15:49.814Z,0.20
2024-02-03T12:18:40.299Z,0.20
2024-02-03T12:21:26.834Z,0.28
2024-02-03T12:24:14.276Z,0.20
2024-02-03T12:27:01.034Z,0.20
2024-02-03T12:29:46.689Z,0.20
2024-02-03T12:32:32.215Z,0.20
2024-02-03T12:35:17.784Z,0.17
2024-02-03T12:38:03.605Z,0.20
2024-02-03T12:40:49.661Z,0.20
2024-02-03T12:43:36.648Z,0.20
2024-02-03T12:46:24.305Z,0.20
2024-02-03T12:49:10.658Z,0.10
2024-02-03T12:51:56.343Z,0.43
2024-02-03T12:54:42.351Z,0.20
2024-02-03T12:57:27.883Z,0.40
2024-02-03T13:00:13.960Z,0.30
2024-02-03T13:03:00.321Z,0.35
2024-02-03T13:05:48.530Z,0.30
2024-02-03T13:08:34.040Z,0.30
2024-02-03T13:11:22.267Z,0.22
2024-02-03T13:14:08.512Z,0.30
2024-02-03T13:16:53.882Z,0.20
2024-02-03T13:19:39.638Z,0.20
2024-02-03T13:22:25.371Z,0.30
2024-02-03T13:25:11.170Z,0.20
2024-02-03T13:27:56.816Z,0.20
2024-02-03T13:30:42.610Z,0.20
2024-02-03T13:33:28.595Z,0.40
2024-02-03T13:36:14.691Z,0.30
2024-02-03T13:39:00.282Z,0.30
2024-02-03T13:41:46.161Z,0.32
2024-02-03T13:44:31.521Z,0.40
2024-02-03T13:47:17.382Z,0.45
2024-02-03T13:50:03.157Z,0.40
2024-02-03T13:52:48.755Z,0.30
2024-02-03T13:55:34.500Z,0.38
2024-02-03T13:58:19.962Z,0.30
2024-02-03T14:01:05.841Z,0.40
2024-02-03T14:03:52.735Z,0.32
2024-02-03T14:06:38.367Z,0.28
2024-02-03T14:09:24.177Z,0.40
2024-02-03T14:12:09.652Z,0.20
2024-02-03T14:14:55.069Z,0.30
2024-02-03T14:17:40.563Z,0.30
2024-02-03T14:20:26.373Z,0.20
2024-02-03T14:23:12.067Z,0.20
2024-02-03T14:25:57.468Z,0.20
2024-02-03T14:28:43.850Z,0.22
2024-02-03T14:31:29.686Z,0.28
2024-02-03T14:34:16.044Z,0.30
2024-02-03T14:37:02.112Z,0.30
2024-02-03T14:39:47.584Z,0.28
2024-02-03T14:42:33.137Z,0.32
2024-02-03T14:45:18.613Z,0.30
2024-02-03T14:48:04.512Z,0.30
2024-02-03T14:50:50.053Z,0.30
2024-02-03T14:53:35.409Z,0.38
2024-02-03T14:56:20.842Z,0.30
2024-02-03T14:59:06.191Z,0.30
2024-02-03T15:01:51.491Z,0.60
2024-02-03T15:04:37.463Z,0.35
2024-02-03T15:07:23.291Z,0.30
2024-02-03T15:10:09.571Z,0.40
2024-02-03T15:12:55.315Z,0.30
2024-02-03T15:15:40.921Z,0.20
2024-02-03T15:18:26.960Z,0.30
2024-02-03T15:21:12.758Z,0.40
2024-02-03T15:23:58.136Z,0.30
2024-02-03T15:26:43.509Z,0.30
2024-02-03T15:29:29.660Z,0.20
2024-02-03T15:32:15.390Z,0.30
2024-02-03T15:35:01.057Z,0.40
2024-02-03T15:37:47.268Z,1.40
2024-02-03T15:40:32.511Z,0.57
2024-02-03T15:43:20.160Z,0.65
2024-02-03T15:46:07.621Z,2.40
2024-02-03T15:48:53.858Z,1.65
2024-02-03T15:51:40.263Z,1.20
2024-02-03T15:54:26.166Z,0.30
2024-02-03T15:57:12.927Z,0.30
2024-02-03T15:59:58.566Z,0.35
2024-02-03T16:02:44.580Z,0.60
2024-02-03T16:05:30.552Z,0.60
2024-02-03T16:08:15.939Z,1.00
2024-02-03T16:11:01.482Z,0.70
2024-02-03T16:13:46.790Z,0.90
2024-02-03T16:16:32.812Z,1.08
2024-02-03T16:19:19.208Z,0.50
2024-02-03T16:22:06.307Z,0.30
2024-02-03T16:24:52.297Z,0.50
2024-02-03T16:27:38.517Z,0.40
2024-02-03T16:30:24.533Z,0.50
2024-02-03T16:33:12.539Z,0.43
2024-02-03T16:35:58.015Z,0.55
2024-02-03T16:38:43.339Z,0.47
2024-02-03T16:41:28.826Z,0.60
2024-02-03T16:44:14.245Z,0.50
2024-02-03T16:46:59.616Z,0.63
2024-02-03T16:49:45.292Z,0.80
2024-02-03T16:52:30.979Z,0.90
2024-02-03T16:55:16.501Z,1.02
2024-02-03T16:58:01.991Z,0.40
2024-02-03T17:00:47.970Z,0.50
2024-02-03T17:03:33.941Z,0.40
2024-02-03T17:06:19.814Z,0.60
2024-02-03T17:09:06.090Z,0.70
2024-02-03T17:11:51.730Z,0.77
2024-02-03T17:14:37.064Z,0.82
2024-02-03T17:17:22.857Z,0.50
2024-02-03T17:20:09.577Z,0.60
2024-02-03T17:22:55.109Z,0.60
2024-02-03T17:25:40.565Z,0.52
2024-02-03T17:28:25.959Z,0.70
2024-02-03T17:31:12.633Z,0.60
2024-02-03T17:33:58.284Z,0.65
2024-02-03T17:36:45.352Z,0.60
2024-02-03T17:39:31.917Z,0.60
2024-02-03T17:42:17.561Z,0.63
2024-02-03T17:45:03.535Z,0.88
2024-02-03T17:47:49.173Z,0.65
2024-02-03T17:50:36.448Z,0.75
2024-02-03T17:53:22.337Z,0.80
2024-02-03T17:56:08.383Z,1.10
2024-02-03T17:58:53.697Z,0.93
2024-02-03T18:01:39.200Z,0.57
2024-02-03T18:04:24.845Z,0.68
2024-02-03T18:07:11.558Z,0.98
2024-02-03T18:09:57.350Z,1.08
2024-02-03T18:12:43.448Z,1.00
2024-02-03T18:15:29.665Z,1.02
2024-02-03T18:18:19.174Z,1.38
2024-02-03T18:21:05.456Z,1.02
2024-02-03T18:23:51.510Z,0.80
2024-02-03T18:26:37.315Z,0.82
2024-02-03T18:29:23.089Z,1.00
2024-02-03T18:32:09.105Z,1.08
2024-02-03T18:34:54.638Z,0.90
2024-02-03T18:37:40.607Z,1.10
2024-02-03T18:40:26.764Z,0.65
2024-02-03T18:43:12.402Z,0.70
2024-02-03T18:45:57.959Z,0.80
2024-02-03T18:48:44.080Z,0.93
2024-02-03T18:51:29.768Z,0.80
2024-02-03T18:54:15.556Z,0.82
2024-02-03T18:57:01.318Z,0.60
2024-02-03T18:59:46.730Z,0.63
2024-02-03T19:02:32.201Z,0.60
2024-02-03T19:05:17.750Z,0.60
2024-02-03T19:08:03.303Z,0.43
2024-02-03T19:10:49.475Z,0.40
2024-02-03T19:13:35.036Z,0.40
2024-02-03T19:16:20.929Z,0.40
2024-02-03T19:19:06.373Z,0.50
2024-02-03T19:21:52.372Z,0.60
2024-02-03T19:24:38.139Z,0.55
2024-02-03T19:27:24.481Z,0.60
2024-02-03T19:30:11.140Z,0.75
2024-02-03T19:32:56.820Z,0.77
2024-02-03T19:35:43.731Z,0.70
2024-02-03T19:38:29.471Z,0.70
2024-02-03T19:41:17.729Z,0.75
2024-02-03T19:44:03.332Z,0.70
2024-02-03T19:46:51.305Z,0.50
2024-02-03T19:49:37.071Z,0.88
2024-02-03T19:52:23.015Z,0.63
2024-02-03T19:55:10.088Z,0.90
2024-02-03T19:57:56.139Z,1.15
2024-02-03T20:00:42.024Z,1.10
2024-02-03T20:03:27.995Z,1.60
2024-02-03T20:06:13.521Z,1.20
2024-02-03T20:08:59.053Z,1.40
2024-02-03T20:11:44.494Z,1.20
2024-02-03T20:14:30.246Z,1.17
2024-02-03T20:17:15.783Z,1.75
2024-02-03T20:20:01.447Z,6.85
2024-02-03T20:22:47.327Z,1.30
2024-02-03T20:25:33.364Z,0.90
2024-02-03T20:28:20.501Z,1.00
2024-02-03T20:31:09.376Z,1.13
2024-02-03T20:33:55.390Z,1.10
2024-02-03T20:36:45.253Z,1.08
2024-02-03T20:39:31.286Z,1.20
2024-02-03T20:42:19.103Z,0.90
2024-02-03T20:45:04.986Z,1.00
2024-02-03T20:47:50.928Z,1.40
2024-02-03T20:50:37.059Z,1.17
2024-02-03T20:53:24.237Z,1.25
2024-02-03T20:56:09.901Z,1.25
2024-02-03T20:58:55.311Z,1.70
2024-02-03T21:01:40.868Z,1.38
2024-02-03T21:04:26.614Z,1.20
2024-02-03T21:07:18.184Z,1.30
2024-02-03T21:10:03.926Z,1.33
2024-02-03T21:12:50.002Z,1.48
2024-02-03T21:15:36.026Z,1.70
2024-02-03T21:18:25.288Z,2.10
2024-02-03T21:21:11.167Z,1.90
2024-02-03T21:23:57.013Z,1.70
2024-02-03T21:26:47.848Z,1.95
2024-02-03T21:29:33.486Z,1.55
2024-02-03T21:32:19.026Z,1.73
2024-02-03T21:35:06.242Z,1.70
2024-02-03T21:37:52.027Z,1.98
2024-02-03T21:40:38.009Z,2.10
2024-02-03T21:43:24.082Z,1.60
2024-02-03T21:46:09.793Z,1.60
2024-02-03T21:48:55.794Z,1.60
2024-02-03T21:51:41.734Z,1.50
2024-02-03T21:54:27.265Z,1.83
2024-02-03T21:57:13.285Z,2.35
2024-02-03T21:59:59.199Z,2.10
2024-02-03T22:02:44.881Z,1.90
2024-02-03T22:05:30.204Z,1.95
2024-02-03T22:08:15.718Z,2.05
2024-02-03T22:11:01.623Z,2.15
2024-02-03T22:13:47.232Z,3.08
2024-02-03T22:16:33.008Z,3.40
2024-02-03T22:19:19.376Z,3.60
2024-02-03T22:22:05.343Z,3.10
2024-02-03T22:24:51.336Z,2.78
2024-02-03T22:27:39.811Z,3.05
2024-02-03T22:30:26.171Z,2.80
2024-02-03T22:33:11.934Z,2.60
2024-02-03T22:35:57.666Z,2.50
2024-02-03T22:38:43.421Z,1.70
2024-02-03T22:41:29.158Z,1.70
2024-02-03T22:44:14.772Z,2.00
2024-02-03T22:47:00.543Z,1.90
2024-02-03T22:49:46.379Z,2.08
2024-02-03T22:52:33.079Z,2.60
2024-02-03T22:55:18.458Z,2.15
2024-02-03T22:58:04.698Z,2.67
2024-02-03T23:00:51.036Z,2.78
2024-02-03T23:03:36.667Z,2.45
2024-02-03T23:06:22.525Z,2.97
2024-02-03T23:09:08.924Z,2.50
2024-02-03T23:11:54.740Z,3.22
2024-02-03T23:14:40.008Z,3.17
2024-02-03T23:17:25.838Z,2.80
2024-02-03T23:20:13.161Z,3.08
2024-02-03T23:22:59.274Z,3.17
2024-02-03T23:25:44.820Z,3.10
2024-02-03T23:28:33.269Z,3.20
2024-02-03T23:31:20.273Z,3.40
2024-02-03T23:34:05.750Z,3.38
2024-02-03T23:36:51.554Z,3.50
2024-02-03T23:39:38.065Z,3.65
2024-02-03T23:42:23.709Z,3.72
2024-02-03T23:45:09.521Z,3.30
2024-02-03T23:47:55.346Z,3.50
2024-02-03T23:50:41.107Z,3.90
2024-02-03T23:53:27.359Z,3.28
2024-02-03T23:56:12.952Z,3.30
2024-02-03T23:58:58.538Z,3.63
